Pagina principale
METAR-TAF:

METAR-TAF

Aeroporti :

Arar, Arabia Saudita

latitudine: 30-54N, longitudine: 041-08E, altezza: 555 m

Osservazione

Il bollettino è stato emesso 1 ora e 3 minuti fa, alle 02:00 UTC
Vento 6 kt da ovest
Temperature 16°C
Umidità 34%
Pressione 1015 hPa
Visibilità 10 km o più
nessuna nube inferiore a 1500 m e nessun cumulonembo

METAR: OERR 250200Z 27006KT CAVOK 16/00 Q1015 NOSIG

Ora: 06:03 (03:03 UTC)

Previsione

Il bollettino è stato emesso 4 ore e 3 minuti fa, alle 23:00 UTC
Previsione valida dal 25 alle 00 UTC al 26 alle 06 UTC
Vento 3 kt da direzioni variabili
Visibilità 10 km o più
nessuna nube inferiore a 1500 m e nessun cumulonembo
Evoluzione graduale
dal 25 alle 06 UTC al 25 alle 08 UTC
Vento 12 kt da sud

TAF: OERR 242300Z 2500/2606 VRB03KT CAVOK BECMG 2506/2508 18012KT

Osservazioni e previsioni meteorologiche di più di 4000 aeroporti (messaggi METAR e TAF).

Le stazioni disponibili sono rappresentate dai dischi gialli e rossi sulla carta.

Puntare il mouse per vedere il nome della stazione.

Clicca sopra per visualizzare le osservazioni e previsioni meteorologiche.

Per cambiare la mappa : fare clic sui pulsanti verdi con una croce nera per ingrandire, il pulsante verde con un trattino per diminuire, o sulla freccia verde per le mappe adiacenti.


METAR-TAF: